Air Quality Table

TIMESTAMP NO2 SO2 O3 PM10 PM2.5 CO TEMP HUM AIRPRES WS WD NO BENZENE
2022-11-26 10:00 28.02 µg/m3 0.14 µg/m3 34.05 µg/m3 17.53 µg/m3 8.2 µg/m3 0.3 mg/m3 15.56 °C 93.29 % 1,013.00 mbar 2.23 m/s 195.16 Deg 15.55 µg/m3 0.81 µg/m3
2022-11-26 09:00 33.56 µg/m3 0.21 µg/m3 30.36 µg/m3 16.28 µg/m3 7.41 µg/m3 0.31 mg/m3 17.91 °C 88.3 % 1,012.64 mbar 1.82 m/s 197.8 Deg 16.42 µg/m3 0.94 µg/m3
2022-11-26 08:00 24.48 µg/m3 0.36 µg/m3 43.13 µg/m3 16.51 µg/m3 6.72 µg/m3 0.3 mg/m3 19.12 °C 83.61 % 1,012.93 mbar 2.29 m/s 203.23 Deg 10.43 µg/m3 1.31 µg/m3
2022-11-26 07:00 26.05 µg/m3 0.18 µg/m3 40.4 µg/m3 14.39 µg/m3 6.18 µg/m3 0.3 mg/m3 18.45 °C 83.43 % 1,013.96 mbar 1.71 m/s 218.34 Deg 7.31 µg/m3 0.79 µg/m3
2022-11-26 06:00 28.8 µg/m3 0.16 µg/m3 32.5 µg/m3 13.15 µg/m3 6.02 µg/m3 0.29 mg/m3 17.41 °C 85.9 % 1,014.23 mbar 1.05 m/s 232.49 Deg 8.61 µg/m3 0.58 µg/m3
2022-11-26 05:00 16.82 µg/m3 0.28 µg/m3 48.3 µg/m3 10.26 µg/m3 4.94 µg/m3 0.28 mg/m3 17.16 °C 84.43 % 1,014.89 mbar 1.15 m/s 186.74 Deg 2.84 µg/m3 0.52 µg/m3
2022-11-26 04:00 19.03 µg/m3 0.16 µg/m3 41.56 µg/m3 9.93 µg/m3 4.93 µg/m3 0.3 mg/m3 16.82 °C 83.84 % 1,016.02 mbar 0.27 m/s 219.49 Deg 2.79 µg/m3 0.58 µg/m3
2022-11-26 03:00 33.3 µg/m3 0.53 µg/m3 35.73 µg/m3 10.87 µg/m3 5.29 µg/m3 0.23 mg/m3 16.04 °C 84.5 % 1,017.09 mbar 1.05 m/s 222.35 Deg 1.81 µg/m3 0.61 µg/m3
2022-11-26 02:00 6.25 µg/m3 0.56 µg/m3 55.2 µg/m3 14.09 µg/m3 5.88 µg/m3 0.36 mg/m3 15.65 °C 83.62 % 1,017.56 mbar 0.8 m/s 221.84 Deg 0.91 µg/m3 0.81 µg/m3
2022-11-26 01:00 22.58 µg/m3 0.94 µg/m3 28.02 µg/m3 14.39 µg/m3 6.67 µg/m3 0.41 mg/m3 15.07 °C 84.36 % 1,017.80 mbar 0.82 m/s 238.93 Deg 5.04 µg/m3 1.28 µg/m3
2022-11-26 00:00 26.88 µg/m3 1.64 µg/m3 24.57 µg/m3 20.71 µg/m3 9.88 µg/m3 0.47 mg/m3 15.1 °C 83.2 % 1,018.48 mbar 0.81 m/s 216.5 Deg 6.95 µg/m3 2.17 µg/m3
2022-11-25 23:00 36.9 µg/m3 1.56 µg/m3 18.26 µg/m3 22.04 µg/m3 11.04 µg/m3 0.5 mg/m3 14.79 °C 84.63 % 1,018.94 mbar 0.41 m/s 222.51 Deg 10.86 µg/m3 2.17 µg/m3
2022-11-25 22:00 58.05 µg/m3 2.03 µg/m3 5.36 µg/m3 40.23 µg/m3 16.39 µg/m3 0.51 mg/m3 14.7 °C 84.42 % 1,019.40 mbar 0.19 m/s 158.15 Deg 34.58 µg/m3 2.54 µg/m3
2022-11-25 21:00 44.99 µg/m3 1.44 µg/m3 12.47 µg/m3 42.05 µg/m3 18.69 µg/m3 0.56 mg/m3 14.56 °C 83.98 % 1,019.62 mbar 0.87 m/s 241.73 Deg 37.35 µg/m3 3.43 µg/m3
2022-11-25 20:00 51.44 µg/m3 1.44 µg/m3 7.87 µg/m3 35.78 µg/m3 13.38 µg/m3 0.52 mg/m3 14.36 °C 85.71 % 1,019.35 mbar 0.81 m/s 245.23 Deg 60.19 µg/m3 3.59 µg/m3
2022-11-25 19:00 70.39 µg/m3 1.65 µg/m3 4.43 µg/m3 100.81 µg/m3 26.51 µg/m3 0.62 mg/m3 15.51 °C 82.67 % 1,019.21 mbar 0.12 m/s 277.95 Deg 113.28 µg/m3 3.54 µg/m3
2022-11-25 18:00 63.8 µg/m3 0.84 µg/m3 13.22 µg/m3 54.76 µg/m3 14.45 µg/m3 0.42 mg/m3 16.54 °C 77.77 % 1,019.31 mbar 0.58 m/s 220.72 Deg 68.06 µg/m3 2.59 µg/m3
2022-11-25 17:00 45.9 µg/m3 0.22 µg/m3 31.98 µg/m3 49.8 µg/m3 13.08 µg/m3 0.33 mg/m3 17.84 °C 72.31 % 1,019.11 mbar 0.91 m/s 243.77 Deg 26.61 µg/m3 1.4 µg/m3
2022-11-25 16:00 21.92 µg/m3 -0.02 µg/m3 55.32 µg/m3 18.85 µg/m3 8.17 µg/m3 0.32 mg/m3 18.76 °C 66.47 % 1,019.19 mbar 1.92 m/s 229.48 Deg 7.69 µg/m3 0.82 µg/m3
2022-11-25 15:00 15.29 µg/m3 0.03 µg/m3 59.29 µg/m3 20.06 µg/m3 8.03 µg/m3 0.31 mg/m3 18.76 °C 64.06 % 1,018.85 mbar 2.51 m/s 43.46 Deg 5.54 µg/m3 0.86 µg/m3
2022-11-25 14:00 16.37 µg/m3 -0.02 µg/m3 59.41 µg/m3 22.22 µg/m3 8.11 µg/m3 0.31 mg/m3 19.21 °C 62.55 % 1,019.49 mbar 2.53 m/s 225.52 Deg 7.42 µg/m3 1.7 µg/m3
2022-11-25 13:00 15.85 µg/m3 -0.05 µg/m3 58.56 µg/m3 19.95 µg/m3 7.59 µg/m3 0.32 mg/m3 19.32 °C 59.9 % 1,020.01 mbar 2.44 m/s 294.28 Deg 7.18 µg/m3 1 µg/m3
2022-11-25 12:00 16.73 µg/m3 0.11 µg/m3 57.45 µg/m3 24.7 µg/m3 8.49 µg/m3 0.32 mg/m3 18.81 °C 63.02 % 1,020.15 mbar 2.11 m/s 270.12 Deg 12.43 µg/m3 0.73 µg/m3
2022-11-25 11:00 18.29 µg/m3 0.05 µg/m3 53.98 µg/m3 21.04 µg/m3 8.37 µg/m3 0.31 mg/m3 18.55 °C 66.17 % 1,020.50 mbar 1.75 m/s 95.04 Deg 10.59 µg/m3 0.73 µg/m3
2022-11-25 10:00 20.98 µg/m3 0.16 µg/m3 47.45 µg/m3 23.31 µg/m3 8.81 µg/m3 0.34 mg/m3 18.27 °C 68.02 % 1,020.57 mbar 1.82 m/s 308.61 Deg 10.07 µg/m3 1.15 µg/m3
2022-11-25 09:00 29.07 µg/m3 0.13 µg/m3 36.83 µg/m3 57.33 µg/m3 13.12 µg/m3 0.35 mg/m3 17.29 °C 72.11 % 1,020.16 mbar 1.51 m/s 271.98 Deg 15.09 µg/m3 1.13 µg/m3
2022-11-25 08:00 32.01 µg/m3 0.01 µg/m3 31.94 µg/m3 41.38 µg/m3 11.25 µg/m3 0.33 mg/m3 16.08 °C 75.95 % 1,019.75 mbar 1.79 m/s 239.96 Deg 16.1 µg/m3 1.24 µg/m3
2022-11-25 07:00 37.07 µg/m3 -0.05 µg/m3 28.1 µg/m3 39.28 µg/m3 10.86 µg/m3 0.3 mg/m3 15.94 °C 76.69 % 1,019.20 mbar 1.71 m/s 263.38 Deg 19.34 µg/m3 0.81 µg/m3
2022-11-25 06:00 29.66 µg/m3 -0.19 µg/m3 36.21 µg/m3 19.37 µg/m3 7.96 µg/m3 0.27 mg/m3 15.95 °C 76.88 % 1,018.70 mbar 1.37 m/s 273.83 Deg 14.53 µg/m3 0.49 µg/m3
2022-11-25 05:00 11.84 µg/m3 -0.29 µg/m3 62.62 µg/m3 18.74 µg/m3 8.07 µg/m3 0.24 mg/m3 16.49 °C 78.43 % 1,018.46 mbar 1.32 m/s 270.96 Deg 0.25 µg/m3 0.44 µg/m3
2022-11-25 04:00 14.56 µg/m3 -0.57 µg/m3 55.33 µg/m3 19.01 µg/m3 8.41 µg/m3 0.24 mg/m3 16.67 °C 80.61 % 1,018.31 mbar 1.69 m/s 272.64 Deg 0.24 µg/m3 0.42 µg/m3
2022-11-25 03:00 23.07 µg/m3 -0.57 µg/m3 58.54 µg/m3 20.19 µg/m3 8.74 µg/m3 0.17 mg/m3 16.68 °C 80.3 % 1,018.13 mbar 1.21 m/s 277.85 Deg 0.1 µg/m3 0.47 µg/m3
2022-11-25 02:00 2.14 µg/m3 -0.38 µg/m3 62.02 µg/m3 20.14 µg/m3 9.02 µg/m3 0.24 mg/m3 17.03 °C 78.53 % 1,017.89 mbar 1.7 m/s 280.11 Deg -0.23 µg/m3 0.42 µg/m3
2022-11-25 01:00 5.4 µg/m3 -0.32 µg/m3 58.82 µg/m3 22.63 µg/m3 9.75 µg/m3 0.24 mg/m3 17.22 °C 77.81 % 1,017.86 mbar 1.77 m/s 297.38 Deg -0.06 µg/m3 0.45 µg/m3
2022-11-25 00:00 4.78 µg/m3 -0.41 µg/m3 60.24 µg/m3 23.67 µg/m3 10.98 µg/m3 0.24 mg/m3 17.3 °C 78.29 % 1,017.79 mbar 1.77 m/s 302 Deg -0.11 µg/m3 0.47 µg/m3
2022-11-24 23:00 5.87 µg/m3 -0.38 µg/m3 61.42 µg/m3 26.61 µg/m3 12.32 µg/m3 0.24 mg/m3 17.41 °C 78.88 % 1,017.40 mbar 1.31 m/s 295.96 Deg 0.17 µg/m3 0.52 µg/m3
2022-11-24 22:00 6.05 µg/m3 -0.03 µg/m3 64.33 µg/m3 26.89 µg/m3 12.67 µg/m3 0.24 mg/m3 17.71 °C 78.56 % 1,017.10 mbar 2.22 m/s 304.45 Deg 0.46 µg/m3 0.58 µg/m3
2022-11-24 21:00 5.41 µg/m3 -0.23 µg/m3 64.56 µg/m3 27.97 µg/m3 13.11 µg/m3 0.24 mg/m3 17.75 °C 78.96 % 1,016.72 mbar 2.76 m/s 313.13 Deg 0.57 µg/m3 0.52 µg/m3
2022-11-24 20:00 8.11 µg/m3 -0.22 µg/m3 65.02 µg/m3 26.24 µg/m3 12.7 µg/m3 0.25 mg/m3 17.88 °C 77.21 % 1,016.17 mbar 2.89 m/s 294.04 Deg 1.86 µg/m3 0.66 µg/m3
2022-11-24 19:00 10.11 µg/m3 -0.27 µg/m3 62.71 µg/m3 27.35 µg/m3 13.12 µg/m3 0.25 mg/m3 18 °C 77.55 % 1,015.71 mbar 2.81 m/s 295.21 Deg 2.22 µg/m3 0.84 µg/m3
2022-11-24 18:00 10.49 µg/m3 -0.28 µg/m3 63.91 µg/m3 29.41 µg/m3 13.02 µg/m3 0.24 mg/m3 18.24 °C 75.58 % 1,015.34 mbar 3.32 m/s 284.3 Deg 2.49 µg/m3 0.79 µg/m3
2022-11-24 17:00 9.06 µg/m3 -0.24 µg/m3 63.26 µg/m3 23.81 µg/m3 11.49 µg/m3 0.24 mg/m3 18.75 °C 72.02 % 1,014.82 mbar 4.07 m/s 292.69 Deg 2.9 µg/m3 0.58 µg/m3
2022-11-24 16:00 9.96 µg/m3 -0.36 µg/m3 62.38 µg/m3 25.86 µg/m3 11.17 µg/m3 0.26 mg/m3 19.31 °C 71.23 % 1,014.24 mbar 4.14 m/s 300.17 Deg 3.57 µg/m3 0.47 µg/m3
2022-11-24 15:00 9.47 µg/m3 -0.08 µg/m3 60.41 µg/m3 23.02 µg/m3 9.85 µg/m3 0.26 mg/m3 19.71 °C 72.35 % 1,014.11 mbar 4.22 m/s 300.49 Deg 3.89 µg/m3 0.55 µg/m3
2022-11-24 14:00 9.37 µg/m3 -0.3 µg/m3 62.44 µg/m3 17.33 µg/m3 7.86 µg/m3 0.25 mg/m3 19.95 °C 69.91 % 1,014.19 mbar 4.49 m/s 291.14 Deg 3.9 µg/m3 0.42 µg/m3
2022-11-24 13:00 9.51 µg/m3 -0.29 µg/m3 56.1 µg/m3 16.56 µg/m3 7.36 µg/m3 0.25 mg/m3 19.94 °C 69.37 % 1,014.32 mbar 4.93 m/s 299.91 Deg 4.71 µg/m3 0.56 µg/m3
2022-11-24 12:00 8.98 µg/m3 -0.19 µg/m3 52.7 µg/m3 22.47 µg/m3 8.75 µg/m3 0.26 mg/m3 19.89 °C 75.08 % 1,014.61 mbar 4.59 m/s 292.84 Deg 4.48 µg/m3 0.5 µg/m3
2022-11-24 11:00 9.65 µg/m3 -0.23 µg/m3 49.53 µg/m3 23.44 µg/m3 8.93 µg/m3 0.24 mg/m3 19.71 °C 79.56 % 1,014.77 mbar 4.76 m/s 282.05 Deg 5.63 µg/m3 0.76 µg/m3
2022-11-24 10:00 10.8 µg/m3 -0.25 µg/m3 45.59 µg/m3 23.62 µg/m3 9.2 µg/m3 0.23 mg/m3 19.68 °C 79.48 % 1,014.54 mbar 3.86 m/s 293.51 Deg 6.15 µg/m3 0.5 µg/m3
2022-11-24 09:00 10.8 µg/m3 -0.22 µg/m3 43.42 µg/m3 18.13 µg/m3 8.19 µg/m3 0.23 mg/m3 19.12 °C 81.31 % 1,013.98 mbar 3.7 m/s 308.08 Deg 6.6 µg/m3 0.55 µg/m3
2022-11-24 08:00 9.54 µg/m3 -0.28 µg/m3 43.96 µg/m3 17.03 µg/m3 8.9 µg/m3 0.22 mg/m3 18.79 °C 81.34 % 1,013.14 mbar 3.91 m/s 299.98 Deg 4.53 µg/m3 0.58 µg/m3
2022-11-24 07:00 8.11 µg/m3 -0.36 µg/m3 44.85 µg/m3 22.17 µg/m3 12.64 µg/m3 0.2 mg/m3 18.93 °C 83.85 % 1,012.21 mbar 4.15 m/s 302.03 Deg 3.75 µg/m3 0.42 µg/m3
2022-11-24 06:00 6.19 µg/m3 -0.45 µg/m3 48.71 µg/m3 25.78 µg/m3 14.86 µg/m3 0.2 mg/m3 19.25 °C 84.99 % 1,011.29 mbar 4.49 m/s 294.46 Deg 1.05 µg/m3 0.26 µg/m3
2022-11-24 05:00 5.67 µg/m3 -0.43 µg/m3 50.53 µg/m3 23.37 µg/m3 14.62 µg/m3 0.19 mg/m3 19.22 °C 86.62 % 1,010.80 mbar 4.59 m/s 297.49 Deg -0.1 µg/m3 0.23 µg/m3
2022-11-24 04:00 10.09 µg/m3 -0.3 µg/m3 49.66 µg/m3 22.76 µg/m3 13.81 µg/m3 0.19 mg/m3 18.74 °C 90.01 % 1,010.70 mbar 3.79 m/s 296.94 Deg 0.06 µg/m3 0.23 µg/m3
2022-11-24 03:00 22.37 µg/m3 -0.3 µg/m3 50.04 µg/m3 24.02 µg/m3 14.06 µg/m3 0.13 mg/m3 19.12 °C 86.58 % 1,010.70 mbar 4.32 m/s 296.18 Deg -0.05 µg/m3 0.26 µg/m3
2022-11-24 02:00 1.63 µg/m3 -0.34 µg/m3 50.25 µg/m3 18.7 µg/m3 11.7 µg/m3 0.18 mg/m3 18.91 °C 88.3 % 1,010.60 mbar 4.85 m/s 291.3 Deg -0.26 µg/m3 0.28 µg/m3
2022-11-24 01:00 1.24 µg/m3 -0.53 µg/m3 51.55 µg/m3 16.18 µg/m3 9.98 µg/m3 0.19 mg/m3 18.45 °C 91.44 % 1,010.48 mbar 4.63 m/s 278.76 Deg 0.12 µg/m3 0.28 µg/m3
2022-11-24 00:00 0.87 µg/m3 -0.46 µg/m3 52.37 µg/m3 8.17 µg/m3 4.98 µg/m3 0.19 mg/m3 18.47 °C 89.75 % 1,010.78 mbar 4.5 m/s 282.01 Deg -0.1 µg/m3 0.34 µg/m3
2022-11-23 23:00 1.17 µg/m3 -0.29 µg/m3 51.6 µg/m3 6.02 µg/m3 3.21 µg/m3 0.2 mg/m3 18.05 °C 90.06 % 1,010.84 mbar 4.18 m/s 278.98 Deg 0.16 µg/m3 0.37 µg/m3
2022-11-23 22:00 1.85 µg/m3 -0.27 µg/m3 51.89 µg/m3 4.27 µg/m3 2.48 µg/m3 0.2 mg/m3 17.01 °C 93.35 % 1,010.86 mbar 5.04 m/s 275.23 Deg 0.41 µg/m3 0.42 µg/m3
2022-11-23 21:00 2.37 µg/m3 -0.43 µg/m3 57.14 µg/m3 10.39 µg/m3 5.76 µg/m3 0.21 mg/m3 18.08 °C 86.79 % 1,010.67 mbar 6.02 m/s 272.18 Deg 0.26 µg/m3 0.44 µg/m3
2022-11-23 20:00 3.87 µg/m3 -0.47 µg/m3 61.27 µg/m3 11.74 µg/m3 6.04 µg/m3 0.21 mg/m3 19.23 °C 75.66 % 1,010.31 mbar 5.36 m/s 285.73 Deg 0.92 µg/m3 0.44 µg/m3
2022-11-23 19:00 4.3 µg/m3 -0.22 µg/m3 64.07 µg/m3 15.99 µg/m3 7.59 µg/m3 0.21 mg/m3 18.83 °C 76.31 % 1,010.01 mbar 5.41 m/s 276.29 Deg 1.09 µg/m3 0.56 µg/m3
2022-11-23 18:00 6.71 µg/m3 -0.25 µg/m3 62.69 µg/m3 14.81 µg/m3 7.31 µg/m3 0.22 mg/m3 18.89 °C 71.66 % 1,009.75 mbar 5.46 m/s 279.26 Deg 2.63 µg/m3 0.65 µg/m3
2022-11-23 17:00 5.91 µg/m3 -0.33 µg/m3 61.42 µg/m3 12.83 µg/m3 6.29 µg/m3 0.21 mg/m3 18.54 °C 72.86 % 1,009.41 mbar 5.74 m/s 275.83 Deg 2.33 µg/m3 0.61 µg/m3
2022-11-23 16:00 7.03 µg/m3 -0.31 µg/m3 61.04 µg/m3 13.07 µg/m3 6 µg/m3 0.2 mg/m3 18.78 °C 71 % 1,009.01 mbar 5.84 m/s 283.86 Deg 3.33 µg/m3 0.47 µg/m3
2022-11-23 15:00 6.9 µg/m3 -0.06 µg/m3 60.86 µg/m3 14.78 µg/m3 6.64 µg/m3 0.19 mg/m3 18.97 °C 68.88 % 1,008.65 mbar 6.48 m/s 272.78 Deg 3.32 µg/m3 0.66 µg/m3
2022-11-23 14:00 7.17 µg/m3 -0.15 µg/m3 63.76 µg/m3 16.6 µg/m3 7.41 µg/m3 0.19 mg/m3 18.87 °C 70.83 % 1,008.90 mbar 5.78 m/s 287.38 Deg 3.16 µg/m3 0.58 µg/m3
2022-11-23 13:00 7.26 µg/m3 0.02 µg/m3 60.2 µg/m3 16.4 µg/m3 7.19 µg/m3 0.18 mg/m3 19.24 °C 64.02 % 1,009.08 mbar 6.52 m/s 274.29 Deg 4.16 µg/m3 0.5 µg/m3
2022-11-23 12:00 5.79 µg/m3 -0.13 µg/m3 42.94 µg/m3 14.3 µg/m3 6.37 µg/m3 0.21 mg/m3 18.55 °C 69.02 % 1,009.69 mbar 6.44 m/s 275.45 Deg 2.65 µg/m3 0.58 µg/m3
2022-11-23 11:00 7.14 µg/m3 0.33 µg/m3 48.4 µg/m3 15.91 µg/m3 7.18 µg/m3 0.23 mg/m3 18.49 °C 66.39 % 1,009.95 mbar 6.88 m/s 273.61 Deg 3.84 µg/m3 0.6 µg/m3
2022-11-23 10:00 8.73 µg/m3 -0.36 µg/m3 57.61 µg/m3 18.76 µg/m3 7.79 µg/m3 0.22 mg/m3 18.45 °C 62.67 % 1,010.06 mbar 5.69 m/s 277.09 Deg 4.94 µg/m3 0.49 µg/m3
2022-11-23 09:00 8.46 µg/m3 -0.22 µg/m3 60.06 µg/m3 19.19 µg/m3 7.39 µg/m3 0.21 mg/m3 17.92 °C 62.12 % 1,009.85 mbar 5.91 m/s 283.61 Deg 4.46 µg/m3 0.58 µg/m3
2022-11-23 08:00 8.99 µg/m3 -0.23 µg/m3 61.88 µg/m3 17.67 µg/m3 7.34 µg/m3 0.21 mg/m3 17.39 °C 63.98 % 1,009.44 mbar 5.43 m/s 288.79 Deg 3.95 µg/m3 0.55 µg/m3
2022-11-23 07:00 9.02 µg/m3 -0.45 µg/m3 63.25 µg/m3 17.36 µg/m3 7.11 µg/m3 0.2 mg/m3 17.25 °C 61.52 % 1,009.11 mbar 5.21 m/s 291.43 Deg 3.46 µg/m3 0.5 µg/m3
2022-11-23 06:00 4.46 µg/m3 -0.36 µg/m3 67.96 µg/m3 15.8 µg/m3 6.79 µg/m3 0.19 mg/m3 17.04 °C 61.83 % 1,009.07 mbar 5.14 m/s 287.34 Deg 0.87 µg/m3 0.37 µg/m3
2022-11-23 05:00 3.69 µg/m3 -0.24 µg/m3 67.78 µg/m3 14.21 µg/m3 6.47 µg/m3 0.2 mg/m3 17.03 °C 60.27 % 1,009.30 mbar 5 m/s 284.1 Deg -0.21 µg/m3 0.39 µg/m3
2022-11-23 04:00 7.34 µg/m3 -0.15 µg/m3 65.77 µg/m3 15.87 µg/m3 6.78 µg/m3 0.2 mg/m3 17.06 °C 61.44 % 1,009.48 mbar 5.03 m/s 286.78 Deg -0.31 µg/m3 0.42 µg/m3
2022-11-23 03:00 19.18 µg/m3 -0.35 µg/m3 66.3 µg/m3 14.55 µg/m3 6.61 µg/m3 0.15 mg/m3 16.5 °C 66.96 % 1,009.68 mbar 4.8 m/s 285.18 Deg -0.37 µg/m3 0.39 µg/m3
2022-11-23 02:00 0.91 µg/m3 -0.39 µg/m3 57.94 µg/m3 15.9 µg/m3 7 µg/m3 0.23 mg/m3 15.49 °C 75.3 % 1,010.04 mbar 4.33 m/s 287.6 Deg -0.37 µg/m3 0.42 µg/m3
2022-11-23 01:00 0.54 µg/m3 -0.5 µg/m3 66.91 µg/m3 17.29 µg/m3 8.67 µg/m3 0.22 mg/m3 12.87 °C 94.69 % 1,010.68 mbar 6.1 m/s 264.51 Deg -0.15 µg/m3 0.42 µg/m3
2022-11-23 00:00 0.53 µg/m3 -0.3 µg/m3 69.88 µg/m3 15.09 µg/m3 7.13 µg/m3 0.21 mg/m3 16.56 °C 63.33 % 1,010.86 mbar 6.48 m/s 272.33 Deg -0.27 µg/m3 0.39 µg/m3
2022-11-22 23:00 1.06 µg/m3 -0.41 µg/m3 69.46 µg/m3 15.81 µg/m3 7.46 µg/m3 0.21 mg/m3 17.79 °C 60.18 % 1,010.65 mbar 5.77 m/s 278.71 Deg 0.09 µg/m3 0.42 µg/m3
2022-11-22 22:00 0.91 µg/m3 -0.07 µg/m3 70.47 µg/m3 15.37 µg/m3 7.15 µg/m3 0.21 mg/m3 17.64 °C 60.08 % 1,010.67 mbar 6.08 m/s 272.01 Deg 0.05 µg/m3 0.39 µg/m3
2022-11-22 21:00 1.58 µg/m3 -0.22 µg/m3 71.94 µg/m3 15.63 µg/m3 6.94 µg/m3 0.21 mg/m3 17.56 °C 58.33 % 1,010.33 mbar 5.75 m/s 277.06 Deg 0.37 µg/m3 0.39 µg/m3
2022-11-22 20:00 2.4 µg/m3 -0.23 µg/m3 68.39 µg/m3 15.32 µg/m3 6.5 µg/m3 0.22 mg/m3 17.77 °C 55.3 % 1,010.06 mbar 5.92 m/s 282.17 Deg 0.62 µg/m3 0.47 µg/m3
2022-11-22 19:00 2.97 µg/m3 -0.16 µg/m3 68.19 µg/m3 16.13 µg/m3 7.42 µg/m3 0.22 mg/m3 17.53 °C 59.05 % 1,009.91 mbar 5.44 m/s 287.39 Deg 0.89 µg/m3 0.47 µg/m3
2022-11-22 18:00 3.79 µg/m3 -0.47 µg/m3 67.04 µg/m3 17.62 µg/m3 8.22 µg/m3 0.22 mg/m3 17.48 °C 59.52 % 1,009.69 mbar 5.97 m/s 285.47 Deg 1.55 µg/m3 0.47 µg/m3
2022-11-22 17:00 5.27 µg/m3 -0.23 µg/m3 66.36 µg/m3 16.71 µg/m3 7.43 µg/m3 0.23 mg/m3 17.4 °C 62.98 % 1,009.08 mbar 5.95 m/s 284.47 Deg 2.42 µg/m3 0.58 µg/m3
2022-11-22 16:00 5.78 µg/m3 -0.2 µg/m3 66.66 µg/m3 22.63 µg/m3 10.39 µg/m3 0.23 mg/m3 17.7 °C 67.31 % 1,008.63 mbar 6.27 m/s 286.26 Deg 2.48 µg/m3 0.5 µg/m3
2022-11-22 15:00 5.81 µg/m3 -0.47 µg/m3 63.23 µg/m3 22.63 µg/m3 8.8 µg/m3 0.22 mg/m3 19.02 °C 58.76 % 1,007.75 mbar 7.6 m/s 274.55 Deg 2.81 µg/m3 0.58 µg/m3
2022-11-22 14:00 7.26 µg/m3 -0.03 µg/m3 57.4 µg/m3 31.68 µg/m3 11.77 µg/m3 0.21 mg/m3 17.97 °C 75.9 % 1,007.81 mbar 6.8 m/s 265.48 Deg 2.33 µg/m3 0.5 µg/m3
2022-11-22 13:00 4.85 µg/m3 -0.25 µg/m3 61.88 µg/m3 63.16 µg/m3 19.29 µg/m3 0.23 mg/m3 19.36 °C 65.32 % 1,007.96 mbar 9.77 m/s 268.12 Deg 1.9 µg/m3 0.44 µg/m3
2022-11-22 12:00 5.99 µg/m3 -0.17 µg/m3 63.6 µg/m3 85.27 µg/m3 24.45 µg/m3 0.25 mg/m3 20.39 °C 63.35 % 1,008.11 mbar 10.91 m/s 255.24 Deg 2.28 µg/m3 0.52 µg/m3
2022-11-22 11:00 6.83 µg/m3 -0.08 µg/m3 63.41 µg/m3 59.27 µg/m3 18.38 µg/m3 0.25 mg/m3 20.05 °C 62.38 % 1,008.32 mbar 10.55 m/s 239.37 Deg 2.81 µg/m3 0.52 µg/m3
2022-11-22 10:00 9.53 µg/m3 -0.08 µg/m3 61.57 µg/m3 61.55 µg/m3 17.79 µg/m3 0.24 mg/m3 19.81 °C 62.31 % 1,008.05 mbar 9.96 m/s 251.2 Deg 4.47 µg/m3 0.58 µg/m3
2022-11-22 09:00 10.25 µg/m3 0.01 µg/m3 59.78 µg/m3 37.13 µg/m3 12.43 µg/m3 0.24 mg/m3 19.52 °C 62.57 % 1,008.09 mbar 9.97 m/s 244.75 Deg 4.83 µg/m3 0.47 µg/m3
2022-11-22 08:00 11.31 µg/m3 -0.21 µg/m3 60.04 µg/m3 29.38 µg/m3 10.62 µg/m3 0.24 mg/m3 18.8 °C 66.16 % 1,008.31 mbar 9.07 m/s 241.87 Deg 4.55 µg/m3 0.63 µg/m3
2022-11-22 07:00 13.27 µg/m3 -0.35 µg/m3 60.58 µg/m3 29.62 µg/m3 10.57 µg/m3 0.23 mg/m3 18.53 °C 64.24 % 1,009.07 mbar 8.87 m/s 241.65 Deg 6.12 µg/m3 0.55 µg/m3
2022-11-22 06:00 8.47 µg/m3 -0.14 µg/m3 69.18 µg/m3 33.03 µg/m3 11.64 µg/m3 0.22 mg/m3 18.29 °C 61.04 % 1,009.59 mbar 7.93 m/s 238.34 Deg 2.99 µg/m3 0.42 µg/m3
2022-11-22 05:00 4.49 µg/m3 -0.2 µg/m3 73.77 µg/m3 33.11 µg/m3 11.67 µg/m3 0.21 mg/m3 18.35 °C 57.66 % 1,010.32 mbar 7.5 m/s 242.09 Deg 0.21 µg/m3 0.42 µg/m3
2022-11-22 04:00 7.43 µg/m3 -0.21 µg/m3 74.43 µg/m3 28.91 µg/m3 9.66 µg/m3 0.21 mg/m3 18.62 °C 54.88 % 1,011.62 mbar 7.02 m/s 244.01 Deg 0.04 µg/m3 0.42 µg/m3
2022-11-22 03:00 19.13 µg/m3 -0.15 µg/m3 73.79 µg/m3 29.06 µg/m3 9.34 µg/m3 0.14 mg/m3 19.07 °C 55.78 % 1,012.63 mbar 6.99 m/s 248.35 Deg -0.04 µg/m3 0.42 µg/m3
2022-11-22 02:00 0.95 µg/m3 -0.08 µg/m3 70.73 µg/m3 23.43 µg/m3 6.86 µg/m3 0.2 mg/m3 18.83 °C 55.88 % 1,013.14 mbar 5.59 m/s 245.05 Deg -0.17 µg/m3 0.42 µg/m3
2022-11-22 01:00 1.41 µg/m3 0.02 µg/m3 69.82 µg/m3 9.5 µg/m3 3.18 µg/m3 0.22 mg/m3 18.63 °C 57.04 % 1,014.17 mbar 5.24 m/s 244.95 Deg 0.08 µg/m3 0.39 µg/m3
2022-11-22 00:00 2.34 µg/m3 -0.11 µg/m3 69.14 µg/m3 8.51 µg/m3 2.83 µg/m3 0.22 mg/m3 18.01 °C 61.13 % 1,014.89 mbar 4.33 m/s 239.57 Deg 0.25 µg/m3 0.55 µg/m3
2022-11-21 23:00 5.18 µg/m3 -0.05 µg/m3 64.12 µg/m3 8.31 µg/m3 3.06 µg/m3 0.23 mg/m3 17.83 °C 65.41 % 1,015.36 mbar 3.8 m/s 240.77 Deg 0.79 µg/m3 0.58 µg/m3
2022-11-21 22:00 5.31 µg/m3 0.01 µg/m3 65.91 µg/m3 9.84 µg/m3 3.68 µg/m3 0.23 mg/m3 17.92 °C 64.95 % 1,015.61 mbar 3.97 m/s 239.98 Deg 0.63 µg/m3 0.52 µg/m3
2022-11-21 21:00 7.37 µg/m3 -0.03 µg/m3 64.57 µg/m3 14.62 µg/m3 4.5 µg/m3 0.22 mg/m3 17.84 °C 66.68 % 1,015.48 mbar 3.98 m/s 249.07 Deg 0.96 µg/m3 0.63 µg/m3
2022-11-21 20:00 6.13 µg/m3 -0.18 µg/m3 65.59 µg/m3 14.63 µg/m3 4.56 µg/m3 0.23 mg/m3 18.07 °C 67.85 % 1,015.52 mbar 4.02 m/s 262.47 Deg 0.74 µg/m3 0.47 µg/m3
2022-11-21 19:00 6.8 µg/m3 -0.31 µg/m3 65.92 µg/m3 13.74 µg/m3 4.73 µg/m3 0.23 mg/m3 18.14 °C 66.3 % 1,015.88 mbar 4.03 m/s 273.85 Deg 1.61 µg/m3 0.73 µg/m3
2022-11-21 18:00 9.52 µg/m3 -0.05 µg/m3 66.91 µg/m3 14.08 µg/m3 5.1 µg/m3 0.24 mg/m3 18.17 °C 66.71 % 1,015.87 mbar 3.74 m/s 283.19 Deg 2.56 µg/m3 0.66 µg/m3
2022-11-21 17:00 7.38 µg/m3 -0.09 µg/m3 66.51 µg/m3 10.71 µg/m3 4.76 µg/m3 0.23 mg/m3 18.44 °C 67.02 % 1,015.72 mbar 4.49 m/s 286.99 Deg 2.92 µg/m3 0.56 µg/m3
2022-11-21 16:00 7.78 µg/m3 -0.24 µg/m3 64.22 µg/m3 12.26 µg/m3 5.45 µg/m3 0.23 mg/m3 18.44 °C 69.34 % 1,015.65 mbar 4.96 m/s 290.25 Deg 3.31 µg/m3 0.5 µg/m3
2022-11-21 15:00 7.49 µg/m3 -0.04 µg/m3 61.52 µg/m3 12.61 µg/m3 5.77 µg/m3 0.23 mg/m3 17.58 °C 76.54 % 1,015.74 mbar 4.46 m/s 283.98 Deg 2.75 µg/m3 0.44 µg/m3
2022-11-21 14:00 9.61 µg/m3 -0.12 µg/m3 62.03 µg/m3 12.63 µg/m3 5.63 µg/m3 0.22 mg/m3 17.68 °C 73.62 % 1,015.92 mbar 4.27 m/s 296.78 Deg 3.65 µg/m3 0.47 µg/m3
2022-11-21 13:00 7.78 µg/m3 -0.09 µg/m3 61.74 µg/m3 13.07 µg/m3 5.84 µg/m3 0.21 mg/m3 17.93 °C 73.13 % 1,016.14 mbar 4.24 m/s 294.8 Deg 3.44 µg/m3 0.58 µg/m3
2022-11-21 12:00 11.53 µg/m3 -0.09 µg/m3 59.86 µg/m3 12.97 µg/m3 5.84 µg/m3 0.19 mg/m3 16.61 °C 80.12 % 1,016.82 mbar 3.7 m/s 323.97 Deg 5.3 µg/m3 0.42 µg/m3
2022-11-21 11:00 9.41 µg/m3 0.11 µg/m3 61.43 µg/m3 13.18 µg/m3 6.34 µg/m3 0.21 mg/m3 16.73 °C 76.65 % 1,017.09 mbar 3.54 m/s 295.74 Deg 3.29 µg/m3 0.42 µg/m3
2022-11-21 10:00 9.76 µg/m3 0.05 µg/m3 61.79 µg/m3 23.96 µg/m3 8.11 µg/m3 0.21 mg/m3 18.14 °C 59.79 % 1,016.78 mbar 4.11 m/s 299.65 Deg 3.46 µg/m3 0.65 µg/m3
2022-11-21 09:00 11.12 µg/m3 0.34 µg/m3 52.99 µg/m3 18.65 µg/m3 6.8 µg/m3 0.22 mg/m3 17.94 °C 53.04 % 1,016.39 mbar 4.5 m/s 296.19 Deg 4.24 µg/m3 0.63 µg/m3
2022-11-21 08:00 11.98 µg/m3 -0.04 µg/m3 60.66 µg/m3 18.88 µg/m3 7.53 µg/m3 0.22 mg/m3 17.15 °C 58.23 % 1,015.87 mbar 3.76 m/s 303.12 Deg 4.54 µg/m3 0.5 µg/m3
2022-11-21 07:00 9.46 µg/m3 0.15 µg/m3 61.78 µg/m3 18.06 µg/m3 8.25 µg/m3 0.22 mg/m3 16.49 °C 70.17 % 1,015.29 mbar 4.14 m/s 312.71 Deg 3.22 µg/m3 0.61 µg/m3
2022-11-21 06:00 5.58 µg/m3 -0.01 µg/m3 63.51 µg/m3 15.08 µg/m3 7.06 µg/m3 0.21 mg/m3 16.22 °C 75.52 % 1,014.70 mbar 2.75 m/s 307.39 Deg 0.48 µg/m3 0.42 µg/m3
2022-11-21 05:00 5.5 µg/m3 0.18 µg/m3 65.78 µg/m3 13.8 µg/m3 5.54 µg/m3 0.19 mg/m3 16.48 °C 71.38 % 1,014.17 mbar 2.59 m/s 296.08 Deg 0.19 µg/m3 0.42 µg/m3
2022-11-21 04:00 7.83 µg/m3 0.15 µg/m3 67.6 µg/m3 13.85 µg/m3 5.87 µg/m3 0.19 mg/m3 16.59 °C 70.21 % 1,013.87 mbar 2.69 m/s 291.58 Deg -0.18 µg/m3 0.39 µg/m3
2022-11-21 03:00 18.81 µg/m3 0.08 µg/m3 69.43 µg/m3 12.01 µg/m3 5.47 µg/m3 0.15 mg/m3 16.83 °C 69.38 % 1,013.77 mbar 4.9 m/s 287.84 Deg -0.05 µg/m3 0.37 µg/m3
2022-11-21 02:00 0.84 µg/m3 0.35 µg/m3 70.43 µg/m3 11.9 µg/m3 5.04 µg/m3 0.25 mg/m3 17.13 °C 67.6 % 1,013.78 mbar 4.88 m/s 289.6 Deg -0.16 µg/m3 0.37 µg/m3
2022-11-21 01:00 0.32 µg/m3 -0.03 µg/m3 67.26 µg/m3 14.45 µg/m3 7.31 µg/m3 0.25 mg/m3 16.45 °C 71.91 % 1,013.99 mbar 4.54 m/s 305.05 Deg -0.05 µg/m3 0.31 µg/m3
2022-11-21 00:00 0.62 µg/m3 0.16 µg/m3 69.17 µg/m3 16.59 µg/m3 7.9 µg/m3 0.25 mg/m3 17.54 °C 66.61 % 1,013.89 mbar 5.24 m/s 296.67 Deg 0.04 µg/m3 0.31 µg/m3
2022-11-20 23:00 1.31 µg/m3 0.4 µg/m3 68.1 µg/m3 18.07 µg/m3 8.31 µg/m3 0.26 mg/m3 18.22 °C 60.86 % 1,013.49 mbar 5.19 m/s 291.24 Deg 0.26 µg/m3 0.37 µg/m3
2022-11-20 22:00 1.78 µg/m3 0.37 µg/m3 67.86 µg/m3 18.7 µg/m3 8.07 µg/m3 0.26 mg/m3 18.35 °C 58.72 % 1,013.00 mbar 5.62 m/s 293.63 Deg 0.43 µg/m3 0.39 µg/m3
2022-11-20 21:00 1.38 µg/m3 0.37 µg/m3 67.4 µg/m3 16.94 µg/m3 7.33 µg/m3 0.27 mg/m3 18.24 °C 61.89 % 1,012.26 mbar 5.28 m/s 297.51 Deg 0.5 µg/m3 0.42 µg/m3
2022-11-20 20:00 2.61 µg/m3 0.45 µg/m3 68.42 µg/m3 13.83 µg/m3 5.96 µg/m3 0.27 mg/m3 18.01 °C 64.22 % 1,011.65 mbar 5.02 m/s 295.91 Deg 0.72 µg/m3 0.39 µg/m3
2022-11-20 19:00 3.5 µg/m3 0.47 µg/m3 66.27 µg/m3 13.17 µg/m3 5.18 µg/m3 0.28 mg/m3 17.75 °C 64.69 % 1,010.95 mbar 5 m/s 278.29 Deg 1.27 µg/m3 0.49 µg/m3
2022-11-20 18:00 4.16 µg/m3 0.66 µg/m3 66.09 µg/m3 11.74 µg/m3 4.85 µg/m3 0.29 mg/m3 17.31 °C 66.62 % 1,010.02 mbar 4.79 m/s 293.43 Deg 1.16 µg/m3 0.42 µg/m3
2022-11-20 17:00 4.61 µg/m3 0.7 µg/m3 67.35 µg/m3 8.38 µg/m3 3.59 µg/m3 0.29 mg/m3 16.47 °C 71.13 % 1,009.48 mbar 5.07 m/s 283.78 Deg 1.52 µg/m3 0.37 µg/m3
2022-11-20 16:00 3.5 µg/m3 0.86 µg/m3 65.09 µg/m3 7.05 µg/m3 3.01 µg/m3 0.3 mg/m3 17.08 °C 68.13 % 1,008.68 mbar 5.74 m/s 282.05 Deg 1.48 µg/m3 0.44 µg/m3
2022-11-20 15:00 3.48 µg/m3 1.12 µg/m3 63.9 µg/m3 11.33 µg/m3 4.09 µg/m3 0.32 mg/m3 16.66 °C 74.14 % 1,008.31 mbar 5.83 m/s 278.29 Deg 0.84 µg/m3 0.44 µg/m3
2022-11-20 14:00 11.23 µg/m3 2.12 µg/m3 56.34 µg/m3 15.17 µg/m3 5.84 µg/m3 0.29 mg/m3 14.12 °C 92.15 % 1,008.29 mbar 4.04 m/s 256.9 Deg 4.5 µg/m3 0.63 µg/m3
2022-11-20 13:00 5.88 µg/m3 7.43 µg/m3 63.93 µg/m3 9.62 µg/m3 3.44 µg/m3 0.2 mg/m3 16.29 °C 72.55 % 1,008.63 mbar 4.06 m/s 283.88 Deg 1.84 µg/m3 0.63 µg/m3
2022-11-20 12:00 6.17 µg/m3 7.43 µg/m3 67.69 µg/m3 14.16 µg/m3 5.72 µg/m3 0.22 mg/m3 12.83 °C 89.72 % 1,009.36 mbar 5.69 m/s 286 Deg 2.26 µg/m3 0.68 µg/m3
2022-11-20 11:00 5.86 µg/m3 8.35 µg/m3 63.69 µg/m3 11.6 µg/m3 4.37 µg/m3 0.23 mg/m3 16.32 °C 76.79 % 1,008.89 mbar 4.91 m/s 299.77 Deg 1.66 µg/m3 0.7 µg/m3
2022-11-20 10:00 5.55 µg/m3 8.14 µg/m3 61.65 µg/m3 20.57 µg/m3 7.38 µg/m3 0.24 mg/m3 17.26 °C 79.86 % 1,008.09 mbar 4.98 m/s 319.13 Deg 1.33 µg/m3 0.56 µg/m3
2022-11-20 09:00 5.92 µg/m3 8.63 µg/m3 56.99 µg/m3 174.52 µg/m3 44.82 µg/m3 0.24 mg/m3 19.12 °C 67.35 % 1,006.75 mbar 6.49 m/s 254.37 Deg 2.11 µg/m3 0.68 µg/m3
2022-11-20 08:00 11 µg/m3 9.52 µg/m3 42.11 µg/m3 148.77 µg/m3 39.53 µg/m3 0.27 mg/m3 18.71 °C 80.22 % 1,006.04 mbar 4.24 m/s 220.83 Deg 2.01 µg/m3 0.98 µg/m3
2022-11-20 07:00 21.68 µg/m3 9.89 µg/m3 27.42 µg/m3 18.26 µg/m3 6.72 µg/m3 0.29 mg/m3 17.58 °C 86.3 % 1,006.28 mbar 1.2 m/s 175.41 Deg 9.77 µg/m3 1.94 µg/m3
2022-11-20 06:00 28.54 µg/m3 9.85 µg/m3 23.49 µg/m3 16.97 µg/m3 5.75 µg/m3 0.26 mg/m3 17.08 °C 86.87 % 1,007.03 mbar 0.41 m/s 277.25 Deg 17.62 µg/m3 1.13 µg/m3
2022-11-20 05:00 9.65 µg/m3 9.75 µg/m3 51.86 µg/m3 17.42 µg/m3 6.09 µg/m3 0.23 mg/m3 18.15 °C 80.91 % 1,007.76 mbar 0.93 m/s 204.19 Deg 3.75 µg/m3 0.56 µg/m3
2022-11-20 04:00 17.62 µg/m3 9.91 µg/m3 40.29 µg/m3 17.29 µg/m3 6.5 µg/m3 0.24 mg/m3 17.79 °C 83.11 % 1,008.00 mbar 1.04 m/s 218.3 Deg 1.71 µg/m3 0.6 µg/m3
2022-11-20 03:00 31.15 µg/m3 10.27 µg/m3 45.9 µg/m3 18.84 µg/m3 7.16 µg/m3 0.18 mg/m3 18.47 °C 80.64 % 1,008.32 mbar 0.78 m/s 220.69 Deg 2.93 µg/m3 0.63 µg/m3
2022-11-20 02:00 7.65 µg/m3 10.4 µg/m3 51.52 µg/m3 21.41 µg/m3 7.36 µg/m3 0.28 mg/m3 18.92 °C 79.41 % 1,008.93 mbar 0.86 m/s 263.12 Deg 0.72 µg/m3 0.84 µg/m3
2022-11-20 01:00 4.53 µg/m3 10.73 µg/m3 60.28 µg/m3 20.06 µg/m3 7.06 µg/m3 0.27 mg/m3 19.48 °C 78.06 % 1,009.02 mbar 1.51 m/s 336.74 Deg 0.95 µg/m3 1 µg/m3
2022-11-20 00:00 5.82 µg/m3 10.3 µg/m3 58.71 µg/m3 19.54 µg/m3 6.91 µg/m3 0.26 mg/m3 19.88 °C 78.26 % 1,009.32 mbar 2.09 m/s 346.65 Deg 0.62 µg/m3 0.63 µg/m3
2022-11-19 23:00 4.43 µg/m3 9.46 µg/m3 51.54 µg/m3 122.06 µg/m3 32 µg/m3 0.26 mg/m3 20.83 °C 78.64 % 1,009.17 mbar 3.56 m/s 146.78 Deg 0.49 µg/m3 0.68 µg/m3
2022-11-19 22:00 3.62 µg/m3 9.9 µg/m3 47.74 µg/m3 118.39 µg/m3 32.01 µg/m3 0.28 mg/m3 21.86 °C 74.09 % 1,009.09 mbar 4.53 m/s 268.28 Deg 0.87 µg/m3 0.6 µg/m3
2022-11-19 21:00 7.25 µg/m3 11.01 µg/m3 45.05 µg/m3 152.79 µg/m3 39.62 µg/m3 0.31 mg/m3 22.41 °C 74.43 % 1,008.52 mbar 4.97 m/s 246.13 Deg 2.25 µg/m3 0.91 µg/m3
2022-11-19 20:00 10.57 µg/m3 11.21 µg/m3 47.28 µg/m3 142.65 µg/m3 37.09 µg/m3 0.34 mg/m3 22.27 °C 78.4 % 1,008.16 mbar 4.43 m/s 235.65 Deg 3.13 µg/m3 1.15 µg/m3
2022-11-19 19:00 18.25 µg/m3 11.6 µg/m3 52.39 µg/m3 86.39 µg/m3 25.65 µg/m3 0.36 mg/m3 22.53 °C 76.78 % 1,007.73 mbar 4.24 m/s 237 Deg 5.87 µg/m3 2.26 µg/m3
2022-11-19 18:00 26.7 µg/m3 11.9 µg/m3 46.11 µg/m3 55.91 µg/m3 17.52 µg/m3 0.37 mg/m3 22.38 °C 81.02 % 1,007.44 mbar 3.15 m/s 227.28 Deg 8.14 µg/m3 3.04 µg/m3
2022-11-19 17:00 23.49 µg/m3 12.1 µg/m3 45.17 µg/m3 46.39 µg/m3 14.2 µg/m3 0.37 mg/m3 22.42 °C 80.48 % 1,007.46 mbar 3.13 m/s 233.83 Deg 7.53 µg/m3 1.87 µg/m3
2022-11-19 16:00 19.96 µg/m3 11.77 µg/m3 40.55 µg/m3 38.6 µg/m3 12.33 µg/m3 0.35 mg/m3 22.98 °C 79.6 % 1,007.30 mbar 3.3 m/s 229.13 Deg 8.85 µg/m3 1.84 µg/m3
2022-11-19 15:00 15.39 µg/m3 11.81 µg/m3 40.08 µg/m3 35.78 µg/m3 10.43 µg/m3 0.34 mg/m3 23.43 °C 76.93 % 1,007.75 mbar 4.56 m/s 236.62 Deg 8.68 µg/m3 1.47 µg/m3
2022-11-19 14:00 14.36 µg/m3 11.65 µg/m3 41.7 µg/m3 26.12 µg/m3 8.28 µg/m3 0.34 mg/m3 23.85 °C 72.37 % 1,007.95 mbar 5.15 m/s 236.33 Deg 9.1 µg/m3 1.05 µg/m3
2022-11-19 13:00 14.22 µg/m3 11.46 µg/m3 43.47 µg/m3 27.69 µg/m3 8.41 µg/m3 0.35 mg/m3 24.04 °C 72.73 % 1,008.07 mbar 5.56 m/s 237.54 Deg 7.9 µg/m3 1.68 µg/m3
2022-11-19 12:00 18.83 µg/m3 11.41 µg/m3 50.35 µg/m3 38.91 µg/m3 13.2 µg/m3 0.38 mg/m3 23.81 °C 75.61 % 1,008.60 mbar 5.29 m/s 238.44 Deg 8.29 µg/m3 3.36 µg/m3

It is to be noted that the data is provisional and subject to quality assurance procedures. For validated data kindly refer your request to contact.air@era.org.mt